createdAt,value
2023-01-03T00:01:01.301Z,31.73
2023-01-03T00:02:03.993Z,26.23
2023-01-03T00:03:06.469Z,25.86
2023-01-03T00:04:09.231Z,27.05
2023-01-03T00:05:12.064Z,31.00
2023-01-03T00:06:16.012Z,30.67
2023-01-03T00:07:18.577Z,26.73
2023-01-03T00:08:21.110Z,23.43
2023-01-03T00:09:23.662Z,26.87
2023-01-03T00:10:27.327Z,24.39
2023-01-03T00:11:29.865Z,29.79
2023-01-03T00:12:32.447Z,26.75
2023-01-03T00:13:34.965Z,33.25
2023-01-03T00:14:37.711Z,27.03
2023-01-03T00:15:40.297Z,27.43
2023-01-03T00:16:43.640Z,26.80
2023-01-03T00:17:46.272Z,29.43
2023-01-03T00:18:48.815Z,28.21
2023-01-03T00:19:51.559Z,26.37
2023-01-03T00:20:54.609Z,33.09
2023-01-03T00:21:57.144Z,28.45
2023-01-03T00:22:59.702Z,30.78
2023-01-03T00:24:02.263Z,29.48
2023-01-03T00:25:04.889Z,30.45
2023-01-03T00:26:07.937Z,35.15
2023-01-03T00:27:10.376Z,32.63
2023-01-03T00:28:13.065Z,36.54
2023-01-03T00:29:15.599Z,34.76
2023-01-03T00:30:19.600Z,34.13
2023-01-03T00:31:22.193Z,34.11
2023-01-03T00:32:24.913Z,34.97
2023-01-03T00:33:27.484Z,29.69
2023-01-03T00:34:30.013Z,34.45
2023-01-03T00:35:32.547Z,36.93
2023-01-03T00:36:35.203Z,36.36
2023-01-03T00:37:37.787Z,34.12
2023-01-03T00:38:40.427Z,36.23
2023-01-03T00:39:42.963Z,42.68
2023-01-03T00:40:45.936Z,35.99
2023-01-03T00:41:48.483Z,35.95
2023-01-03T00:42:51.019Z,37.52
2023-01-03T00:43:53.630Z,33.73
2023-01-03T00:44:56.213Z,36.00
2023-01-03T00:45:58.899Z,31.11
2023-01-03T00:47:01.958Z,35.70
2023-01-03T00:48:04.511Z,33.19
2023-01-03T00:49:07.087Z,35.75
2023-01-03T00:50:11.463Z,37.94
2023-01-03T00:51:14.014Z,40.09
2023-01-03T00:52:16.587Z,40.12
2023-01-03T00:53:19.122Z,40.74
2023-01-03T00:54:21.691Z,35.39
2023-01-03T00:55:24.431Z,36.50
2023-01-03T00:56:27.177Z,35.46
2023-01-03T00:57:29.713Z,61.81
2023-01-03T00:58:32.245Z,39.09
2023-01-03T00:59:34.838Z,50.39
2023-01-03T01:00:37.603Z,46.06
2023-01-03T01:01:46.658Z,36.75
2023-01-03T01:02:44.689Z,49.58
2023-01-03T01:03:48.070Z,60.59
2023-01-03T01:04:50.618Z,102.09
2023-01-03T01:05:53.184Z,45.91
2023-01-03T01:06:55.718Z,101.12
2023-01-03T01:07:58.253Z,77.07
2023-01-03T01:09:00.790Z,52.39
2023-01-03T01:10:03.479Z,69.63
2023-01-03T01:11:06.012Z,85.37
2023-01-03T01:12:08.549Z,105.13
2023-01-03T01:13:11.083Z,60.01
2023-01-03T01:14:13.604Z,80.01
2023-01-03T01:15:16.198Z,63.86
2023-01-03T01:16:20.533Z,57.06
2023-01-03T01:17:23.364Z,96.59
2023-01-03T01:18:25.891Z,98.67
2023-01-03T01:19:28.421Z,121.53
2023-01-03T01:20:31.395Z,75.64
2023-01-03T01:21:33.955Z,131.63
2023-01-03T01:22:36.456Z,134.86
2023-01-03T01:23:39.011Z,100.03
2023-01-03T01:24:41.560Z,88.11
2023-01-03T01:25:44.147Z,56.48
2023-01-03T01:26:47.118Z,63.67
2023-01-03T01:27:49.641Z,58.47
2023-01-03T01:28:52.185Z,137.08
2023-01-03T01:29:54.709Z,95.97
2023-01-03T01:30:57.401Z,51.32
2023-01-03T01:31:59.921Z,136.87
2023-01-03T01:33:02.458Z,169.03
2023-01-03T01:34:05.031Z,105.99
2023-01-03T01:35:07.565Z,222.51
2023-01-03T01:36:11.772Z,136.44
2023-01-03T01:37:14.305Z,221.03
2023-01-03T01:38:16.840Z,280.55
2023-01-03T01:39:19.399Z,243.36
2023-01-03T01:40:22.021Z,175.55
2023-01-03T01:41:24.483Z,179.39
2023-01-03T01:42:30.513Z,134.87
2023-01-03T01:43:31.360Z,103.25
2023-01-03T01:44:33.920Z,92.05
2023-01-03T01:45:36.438Z,75.67
2023-01-03T01:46:39.081Z,96.34
2023-01-03T01:47:41.662Z,126.65
2023-01-03T01:48:44.201Z,96.48
2023-01-03T01:49:46.746Z,120.35
2023-01-03T01:50:50.006Z,74.32
2023-01-03T01:51:52.990Z,91.99
2023-01-03T01:52:55.529Z,74.22
2023-01-03T01:53:58.087Z,59.68
2023-01-03T01:55:00.631Z,78.42
2023-01-03T01:56:03.311Z,99.75
2023-01-03T01:57:06.203Z,70.17
2023-01-03T01:58:09.148Z,41.33
2023-01-03T01:59:11.674Z,116.61
2023-01-03T02:00:15.036Z,247.11
2023-01-03T02:01:17.658Z,67.29
2023-01-03T02:02:20.629Z,41.50
2023-01-03T02:03:23.594Z,37.52
2023-01-03T02:04:26.241Z,150.23
2023-01-03T02:05:28.784Z,64.25
2023-01-03T02:06:31.523Z,33.59
2023-01-03T02:07:34.110Z,32.00
2023-01-03T02:08:36.647Z,34.95
2023-01-03T02:09:39.080Z,34.17
2023-01-03T02:10:42.250Z,29.90
2023-01-03T02:11:44.774Z,37.13
2023-01-03T02:12:47.394Z,37.93
2023-01-03T02:13:49.918Z,29.85
2023-01-03T02:14:52.447Z,32.01
2023-01-03T02:15:55.026Z,32.25
2023-01-03T02:16:57.915Z,33.43
2023-01-03T02:18:00.520Z,27.81
2023-01-03T02:19:03.082Z,30.91
2023-01-03T02:20:05.910Z,27.70
2023-01-03T02:21:08.441Z,30.95
2023-01-03T02:22:10.978Z,29.03
2023-01-03T02:23:13.544Z,29.44
2023-01-03T02:24:16.081Z,25.79
2023-01-03T02:25:18.615Z,27.11
2023-01-03T02:26:21.399Z,27.29
2023-01-03T02:27:23.890Z,26.41
2023-01-03T02:28:26.463Z,27.64
2023-01-03T02:29:28.994Z,25.53
2023-01-03T02:30:31.708Z,22.51
2023-01-03T02:31:34.312Z,27.05
2023-01-03T02:32:36.983Z,24.43
2023-01-03T02:33:39.555Z,25.51
2023-01-03T02:34:42.101Z,21.79
2023-01-03T02:35:44.635Z,25.95
2023-01-03T02:36:47.377Z,24.31
2023-01-03T02:37:49.937Z,22.63
2023-01-03T02:38:52.463Z,23.66
2023-01-03T02:39:55.010Z,25.57
2023-01-03T02:40:57.749Z,24.41
2023-01-03T02:42:00.287Z,25.01
2023-01-03T02:43:02.891Z,24.87
2023-01-03T02:44:05.473Z,25.83
2023-01-03T02:45:08.034Z,28.78
2023-01-03T02:46:11.099Z,26.45
2023-01-03T02:47:13.599Z,26.35
2023-01-03T02:48:16.412Z,24.59
2023-01-03T02:49:18.924Z,27.99
2023-01-03T02:50:22.105Z,24.20
2023-01-03T02:51:24.658Z,27.67
2023-01-03T02:52:27.207Z,28.59
2023-01-03T02:53:29.749Z,29.67
2023-01-03T02:54:32.342Z,29.40
2023-01-03T02:55:34.940Z,35.19
2023-01-03T02:56:37.764Z,28.34
2023-01-03T02:57:40.536Z,26.89
2023-01-03T02:58:43.079Z,31.37
2023-01-03T02:59:45.653Z,31.49
2023-01-03T03:00:48.490Z,36.28
2023-01-03T03:01:51.510Z,35.09
2023-01-03T03:02:54.222Z,38.08
2023-01-03T03:03:56.863Z,33.99
2023-01-03T03:04:59.547Z,39.06
2023-01-03T03:06:02.075Z,37.41
2023-01-03T03:07:04.641Z,32.91
2023-01-03T03:08:07.172Z,33.11
2023-01-03T03:09:09.715Z,33.07
2023-01-03T03:10:12.955Z,36.86
2023-01-03T03:11:15.537Z,41.24
2023-01-03T03:12:18.100Z,39.74
2023-01-03T03:13:21.137Z,35.61
2023-01-03T03:14:23.706Z,40.37
2023-01-03T03:15:26.267Z,53.55
2023-01-03T03:16:29.213Z,43.45
2023-01-03T03:17:31.869Z,50.63
2023-01-03T03:18:34.368Z,53.23
2023-01-03T03:19:36.914Z,43.23
2023-01-03T03:20:39.604Z,54.73
2023-01-03T03:21:42.158Z,63.30
2023-01-03T03:22:44.696Z,46.52
2023-01-03T03:23:47.223Z,51.67
2023-01-03T03:24:49.757Z,57.15
2023-01-03T03:25:52.336Z,67.57
2023-01-03T03:26:55.279Z,75.52
2023-01-03T03:27:57.814Z,71.34
2023-01-03T03:29:00.355Z,66.87
2023-01-03T03:30:03.260Z,64.47
2023-01-03T03:31:05.952Z,76.96
2023-01-03T03:32:08.566Z,79.67
2023-01-03T03:33:11.019Z,65.81
2023-01-03T03:34:13.559Z,58.88
2023-01-03T03:35:16.107Z,79.35
2023-01-03T03:36:19.581Z,67.87
2023-01-03T03:37:22.141Z,41.31
2023-01-03T03:38:24.673Z,57.10
2023-01-03T03:39:27.254Z,72.41
2023-01-03T03:40:30.268Z,60.85
2023-01-03T03:41:32.832Z,74.82
2023-01-03T03:42:35.396Z,90.24
2023-01-03T03:43:37.931Z,90.23
2023-01-03T03:44:40.473Z,57.73
2023-01-03T03:45:43.057Z,58.07
2023-01-03T03:46:52.475Z,88.16
2023-01-03T03:47:50.285Z,73.23
2023-01-03T03:48:52.741Z,120.60
2023-01-03T03:49:55.265Z,108.80
2023-01-03T03:50:58.121Z,117.33
2023-01-03T03:52:00.707Z,240.51
2023-01-03T03:53:03.265Z,297.21
2023-01-03T03:54:05.814Z,233.73
2023-01-03T03:55:08.351Z,104.03
2023-01-03T03:56:11.527Z,77.78
2023-01-03T03:57:14.226Z,90.41
2023-01-03T03:58:16.774Z,152.35
2023-01-03T03:59:19.337Z,77.33
2023-01-03T04:00:23.097Z,79.37
2023-01-03T04:01:25.769Z,90.44
2023-01-03T04:02:28.618Z,84.58
2023-01-03T04:03:31.469Z,72.22
2023-01-03T04:04:34.069Z,95.37
2023-01-03T04:05:36.610Z,135.87
2023-01-03T04:06:39.446Z,145.17
2023-01-03T04:07:42.012Z,79.17
2023-01-03T04:08:44.787Z,86.81
2023-01-03T04:09:47.315Z,75.31
2023-01-03T04:10:50.078Z,111.47
2023-01-03T04:11:52.624Z,105.04
2023-01-03T04:12:55.219Z,100.28
2023-01-03T04:13:57.775Z,123.42
2023-01-03T04:15:00.365Z,82.76
2023-01-03T04:16:03.187Z,99.79
2023-01-03T04:17:05.831Z,107.52
2023-01-03T04:18:08.403Z,87.32
2023-01-03T04:19:11.328Z,91.62
2023-01-03T04:20:14.372Z,112.52
2023-01-03T04:21:20.767Z,114.36
2023-01-03T04:22:21.274Z,115.44
2023-01-03T04:23:23.853Z,113.60
2023-01-03T04:24:26.412Z,99.17
2023-01-03T04:25:28.962Z,99.50
2023-01-03T04:26:32.008Z,94.76
2023-01-03T04:27:34.544Z,129.30
2023-01-03T04:28:37.377Z,142.33
2023-01-03T04:29:39.910Z,108.94
2023-01-03T04:30:42.701Z,121.26
2023-01-03T04:31:45.273Z,87.04
2023-01-03T04:32:47.774Z,121.37
2023-01-03T04:33:50.340Z,94.22
2023-01-03T04:34:52.920Z,128.14
2023-01-03T04:35:55.441Z,141.92
2023-01-03T04:36:58.423Z,88.64
2023-01-03T04:38:00.976Z,86.08
2023-01-03T04:39:03.534Z,137.57
2023-01-03T04:40:06.393Z,131.50
2023-01-03T04:41:08.992Z,154.62
2023-01-03T04:42:11.518Z,115.53
2023-01-03T04:43:14.046Z,101.86
2023-01-03T04:44:16.620Z,124.41
2023-01-03T04:45:19.165Z,150.31
2023-01-03T04:46:22.955Z,94.85
2023-01-03T04:47:25.660Z,85.12
2023-01-03T04:48:28.245Z,109.03
2023-01-03T04:49:30.793Z,151.67
2023-01-03T04:50:33.759Z,90.80
2023-01-03T04:51:36.301Z,82.55
2023-01-03T04:52:38.845Z,105.79
2023-01-03T04:53:41.364Z,125.30
2023-01-03T04:54:43.932Z,121.04
2023-01-03T04:55:46.487Z,114.19
2023-01-03T04:56:49.414Z,183.08
2023-01-03T04:57:51.983Z,96.78
2023-01-03T04:58:54.524Z,131.64
2023-01-03T04:59:57.110Z,148.79
2023-01-03T05:00:59.837Z,135.41
2023-01-03T05:02:02.612Z,92.79
2023-01-03T05:03:05.419Z,133.82
2023-01-03T05:04:08.011Z,188.62
2023-01-03T05:05:10.735Z,270.51
2023-01-03T05:06:13.676Z,267.82
2023-01-03T05:07:16.213Z,126.85
2023-01-03T05:08:18.752Z,89.18
2023-01-03T05:09:21.294Z,243.54
2023-01-03T05:10:24.456Z,205.43
2023-01-03T05:11:26.977Z,240.97
2023-01-03T05:12:29.525Z,197.51
2023-01-03T05:13:32.069Z,209.07
2023-01-03T05:14:34.597Z,177.77
2023-01-03T05:15:37.222Z,143.28
2023-01-03T05:16:40.455Z,136.55
2023-01-03T05:17:43.413Z,285.60
2023-01-03T05:18:45.941Z,154.52
2023-01-03T05:19:48.477Z,154.25
2023-01-03T05:20:51.471Z,143.69
2023-01-03T05:21:54.000Z,193.73
2023-01-03T05:22:56.555Z,232.27
2023-01-03T05:23:59.078Z,171.69
2023-01-03T05:25:01.623Z,150.45
2023-01-03T05:26:04.418Z,121.28
2023-01-03T05:27:06.998Z,144.41
2023-01-03T05:28:13.781Z,149.38
2023-01-03T05:29:14.011Z,107.78
2023-01-03T05:30:17.279Z,116.61
2023-01-03T05:31:19.807Z,83.31
2023-01-03T05:32:22.683Z,119.44
2023-01-03T05:33:25.266Z,191.64
2023-01-03T05:34:27.797Z,150.50
2023-01-03T05:35:30.318Z,148.40
2023-01-03T05:36:33.352Z,172.02
2023-01-03T05:37:35.897Z,133.69
2023-01-03T05:38:38.464Z,149.33
2023-01-03T05:39:41.001Z,107.09
2023-01-03T05:40:43.974Z,133.85
2023-01-03T05:41:48.326Z,143.36
2023-01-03T05:42:50.824Z,109.87
2023-01-03T05:43:53.364Z,133.01
2023-01-03T05:44:55.927Z,121.87
2023-01-03T05:45:59.678Z,154.90
2023-01-03T05:47:02.657Z,126.75
2023-01-03T05:48:05.184Z,111.31
2023-01-03T05:49:07.729Z,96.69
2023-01-03T05:50:10.711Z,111.70
2023-01-03T05:51:13.224Z,112.47
2023-01-03T05:52:15.789Z,75.75
2023-01-03T05:53:18.356Z,89.86
2023-01-03T05:54:20.876Z,73.84
2023-01-03T05:55:23.410Z,79.23
2023-01-03T05:56:26.165Z,59.53
2023-01-03T05:57:35.108Z,58.53
2023-01-03T05:58:33.626Z,67.36
2023-01-03T05:59:36.170Z,57.17
2023-01-03T06:00:38.903Z,42.44
2023-01-03T06:01:41.593Z,46.63
2023-01-03T06:02:44.437Z,50.38
2023-01-03T06:03:47.294Z,41.16
2023-01-03T06:04:50.308Z,37.14
2023-01-03T06:05:52.820Z,54.18
2023-01-03T06:06:55.656Z,50.85
2023-01-03T06:07:58.259Z,58.13
2023-01-03T06:09:00.841Z,76.37
2023-01-03T06:10:03.550Z,75.98
2023-01-03T06:11:06.106Z,70.26
2023-01-03T06:12:09.065Z,86.32
2023-01-03T06:13:11.641Z,68.83
2023-01-03T06:14:14.080Z,94.52
2023-01-03T06:15:16.622Z,79.37
2023-01-03T06:16:24.608Z,114.03
2023-01-03T06:17:24.999Z,131.55
2023-01-03T06:18:27.708Z,103.21
2023-01-03T06:19:30.271Z,102.75
2023-01-03T06:20:33.298Z,142.13
2023-01-03T06:21:36.053Z,159.64
2023-01-03T06:22:38.581Z,203.81
2023-01-03T06:23:41.192Z,154.13
2023-01-03T06:24:43.733Z,182.80
2023-01-03T06:25:46.274Z,117.79
2023-01-03T06:26:49.014Z,116.47
2023-01-03T06:27:51.602Z,97.09
2023-01-03T06:28:54.215Z,144.83
2023-01-03T06:29:56.746Z,69.99
2023-01-03T06:30:59.732Z,56.37
2023-01-03T06:32:08.918Z,53.39
2023-01-03T06:33:06.831Z,41.26
2023-01-03T06:34:09.680Z,32.45
2023-01-03T06:35:12.213Z,51.11
2023-01-03T06:36:15.599Z,52.08
2023-01-03T06:37:18.179Z,36.35
2023-01-03T06:38:20.707Z,51.13
2023-01-03T06:39:23.284Z,36.91
2023-01-03T06:40:32.007Z,39.13
2023-01-03T06:41:30.318Z,56.16
2023-01-03T06:42:32.874Z,47.81
2023-01-03T06:43:35.507Z,59.98
2023-01-03T06:44:38.201Z,59.26
2023-01-03T06:45:40.740Z,65.87
2023-01-03T06:46:43.541Z,108.73
2023-01-03T06:47:46.123Z,52.51
2023-01-03T06:48:48.658Z,102.79
2023-01-03T06:49:51.295Z,102.39
2023-01-03T06:50:54.090Z,83.33
2023-01-03T06:51:56.660Z,82.33
2023-01-03T06:52:59.211Z,72.24
2023-01-03T06:54:01.755Z,54.05
2023-01-03T06:55:04.347Z,76.24
2023-01-03T06:56:07.510Z,70.16
2023-01-03T06:57:10.027Z,57.49
2023-01-03T06:58:14.537Z,52.52
2023-01-03T06:59:17.090Z,58.42
2023-01-03T07:00:20.080Z,44.97
2023-01-03T07:01:22.736Z,38.66
2023-01-03T07:02:25.561Z,57.49
2023-01-03T07:03:28.312Z,51.37
2023-01-03T07:04:30.956Z,54.30
2023-01-03T07:05:33.697Z,61.91
2023-01-03T07:06:36.295Z,69.15
2023-01-03T07:07:38.834Z,52.99
2023-01-03T07:08:47.912Z,62.16
2023-01-03T07:09:45.750Z,55.44
2023-01-03T07:10:48.846Z,76.59
2023-01-03T07:11:51.403Z,88.27
2023-01-03T07:12:53.934Z,69.22
2023-01-03T07:13:56.549Z,83.31
2023-01-03T07:14:59.079Z,83.37
2023-01-03T07:16:01.687Z,73.93
2023-01-03T07:17:04.316Z,74.84
2023-01-03T07:18:06.802Z,68.93
2023-01-03T07:19:09.350Z,96.47
2023-01-03T07:20:12.928Z,65.87
2023-01-03T07:21:15.659Z,78.14
2023-01-03T07:22:18.206Z,63.08
2023-01-03T07:23:20.869Z,54.46
2023-01-03T07:24:23.419Z,38.24
2023-01-03T07:25:25.952Z,44.25
2023-01-03T07:26:28.938Z,43.29
2023-01-03T07:27:31.469Z,39.25
2023-01-03T07:28:34.022Z,40.96
2023-01-03T07:29:36.550Z,45.76
2023-01-03T07:30:39.304Z,45.54
2023-01-03T07:31:42.032Z,39.73
2023-01-03T07:32:44.660Z,42.70
2023-01-03T07:33:47.174Z,52.86
2023-01-03T07:34:49.731Z,47.51
2023-01-03T07:35:52.334Z,59.79
2023-01-03T07:36:55.297Z,61.01
2023-01-03T07:37:57.856Z,48.62
2023-01-03T07:39:00.402Z,46.83
2023-01-03T07:40:03.246Z,53.61
2023-01-03T07:41:05.784Z,53.95
2023-01-03T07:42:08.414Z,53.23
2023-01-03T07:43:10.968Z,57.33
2023-01-03T07:44:13.513Z,56.55
2023-01-03T07:45:16.038Z,47.55
2023-01-03T07:46:19.030Z,44.67
2023-01-03T07:47:24.221Z,71.59
2023-01-03T07:48:27.355Z,58.75
2023-01-03T07:49:29.998Z,62.25
2023-01-03T07:50:32.746Z,57.90
2023-01-03T07:51:35.309Z,76.38
2023-01-03T07:52:37.892Z,49.17
2023-01-03T07:53:40.467Z,46.69
2023-01-03T07:54:42.984Z,60.49
2023-01-03T07:55:45.537Z,51.18
2023-01-03T07:56:48.462Z,51.99
2023-01-03T07:57:51.048Z,51.00
2023-01-03T07:58:53.580Z,57.59
2023-01-03T07:59:56.128Z,62.27
2023-01-03T08:00:58.764Z,69.43
2023-01-03T08:02:01.479Z,52.54
2023-01-03T08:03:08.930Z,48.66
2023-01-03T08:04:08.573Z,60.88
2023-01-03T08:05:11.148Z,52.72
2023-01-03T08:06:14.569Z,44.76
2023-01-03T08:07:17.020Z,45.97
2023-01-03T08:08:19.499Z,51.42
2023-01-03T08:09:22.088Z,36.77
2023-01-03T08:10:25.247Z,34.11
2023-01-03T08:11:27.835Z,35.12
2023-01-03T08:12:30.363Z,44.95
2023-01-03T08:13:32.931Z,35.44
2023-01-03T08:14:35.632Z,39.51
2023-01-03T08:15:38.219Z,40.53
2023-01-03T08:16:41.414Z,36.96
2023-01-03T08:17:44.012Z,45.67
2023-01-03T08:18:46.591Z,37.60
2023-01-03T08:19:49.119Z,47.67
2023-01-03T08:20:51.981Z,46.82
2023-01-03T08:21:54.513Z,39.51
2023-01-03T08:22:57.052Z,40.25
2023-01-03T08:23:59.611Z,39.63
2023-01-03T08:25:02.159Z,37.93
2023-01-03T08:26:05.256Z,29.32
2023-01-03T08:27:07.836Z,40.69
2023-01-03T08:28:10.410Z,33.80
2023-01-03T08:29:12.970Z,34.26
2023-01-03T08:30:17.266Z,29.52
2023-01-03T08:31:19.902Z,37.95
2023-01-03T08:32:22.413Z,40.05
2023-01-03T08:33:24.934Z,41.43
2023-01-03T08:34:30.207Z,46.71
2023-01-03T08:35:31.940Z,38.88
2023-01-03T08:36:34.866Z,41.73
2023-01-03T08:37:37.407Z,42.53
2023-01-03T08:38:39.939Z,37.69
2023-01-03T08:39:42.500Z,31.35
2023-01-03T08:40:45.508Z,26.23
2023-01-03T08:41:48.055Z,33.25
2023-01-03T08:42:50.653Z,36.34
2023-01-03T08:43:53.223Z,34.81
2023-01-03T08:44:55.794Z,35.40
2023-01-03T08:45:58.700Z,31.97
2023-01-03T08:47:01.515Z,27.42
2023-01-03T08:48:04.142Z,34.87
2023-01-03T08:49:06.670Z,33.60
2023-01-03T08:50:10.086Z,30.61
2023-01-03T08:51:12.632Z,36.33
2023-01-03T08:52:15.173Z,39.83
2023-01-03T08:53:17.816Z,44.16
2023-01-03T08:54:20.399Z,39.49
2023-01-03T08:55:22.996Z,42.63
2023-01-03T08:56:25.847Z,45.27
2023-01-03T08:57:28.545Z,43.28
2023-01-03T08:58:31.071Z,43.01
2023-01-03T08:59:33.605Z,41.51
2023-01-03T09:00:36.519Z,42.64
2023-01-03T09:01:39.216Z,40.19
2023-01-03T09:02:41.948Z,45.80
2023-01-03T09:03:44.655Z,45.00
2023-01-03T09:04:47.474Z,47.92
2023-01-03T09:05:50.061Z,41.17
2023-01-03T09:06:52.820Z,46.51
2023-01-03T09:07:55.354Z,40.19
2023-01-03T09:08:57.880Z,42.71
2023-01-03T09:10:00.328Z,37.72
2023-01-03T09:11:02.883Z,39.95
2023-01-03T09:12:05.513Z,30.05
2023-01-03T09:13:08.007Z,47.14
2023-01-03T09:14:10.549Z,37.99
2023-01-03T09:15:13.156Z,40.43
2023-01-03T09:16:16.991Z,43.10
2023-01-03T09:17:19.850Z,42.59
2023-01-03T09:18:22.403Z,43.90
2023-01-03T09:19:24.935Z,38.22
2023-01-03T09:20:27.840Z,44.04
2023-01-03T09:21:30.327Z,40.21
2023-01-03T09:22:32.774Z,44.74
2023-01-03T09:23:35.473Z,42.13
2023-01-03T09:24:37.981Z,40.57
2023-01-03T09:25:40.530Z,40.34
2023-01-03T09:26:43.765Z,39.17
2023-01-03T09:27:47.799Z,42.74
2023-01-03T09:28:50.628Z,43.22
2023-01-03T09:29:53.192Z,37.91
2023-01-03T09:30:56.099Z,38.83
2023-01-03T09:31:58.729Z,39.45
2023-01-03T09:33:01.423Z,36.88
2023-01-03T09:34:04.078Z,29.31
2023-01-03T09:35:06.611Z,37.20
2023-01-03T09:36:09.650Z,26.49
2023-01-03T09:37:12.249Z,38.65
2023-01-03T09:38:14.926Z,37.32
2023-01-03T09:39:17.765Z,28.93
2023-01-03T09:40:20.846Z,32.75
2023-01-03T09:41:23.412Z,35.71
2023-01-03T09:42:25.969Z,30.53
2023-01-03T09:43:28.499Z,26.06
2023-01-03T09:44:31.051Z,36.21
2023-01-03T09:45:33.644Z,31.48
2023-01-03T09:46:36.551Z,25.97
2023-01-03T09:47:39.411Z,24.50
2023-01-03T09:48:41.962Z,32.39
2023-01-03T09:50:11.564Z,38.47
2023-01-03T09:51:17.139Z,38.47
2023-01-03T09:51:53.664Z,28.69
2023-01-03T09:52:56.238Z,40.03
2023-01-03T09:53:58.782Z,36.31
2023-01-03T09:55:01.320Z,42.89
2023-01-03T09:56:04.109Z,31.91
2023-01-03T09:57:06.706Z,27.25
2023-01-03T09:58:09.267Z,34.00
2023-01-03T09:59:11.931Z,33.94
2023-01-03T10:00:16.333Z,38.45
2023-01-03T10:01:18.956Z,21.32
2023-01-03T10:02:21.692Z,32.11
2023-01-03T10:03:24.513Z,41.90
2023-01-03T10:04:27.500Z,39.83
2023-01-03T10:05:30.249Z,33.81
2023-01-03T10:06:32.966Z,35.26
2023-01-03T10:07:35.504Z,36.32
2023-01-03T10:08:38.360Z,38.48
2023-01-03T10:09:40.900Z,29.96
2023-01-03T10:10:43.951Z,36.64
2023-01-03T10:11:46.522Z,38.19
2023-01-03T10:12:49.050Z,37.14
2023-01-03T10:13:51.629Z,36.23
2023-01-03T10:14:54.175Z,37.17
2023-01-03T10:15:56.890Z,39.87
2023-01-03T10:17:00.013Z,41.16
2023-01-03T10:18:02.631Z,41.43
2023-01-03T10:19:05.381Z,37.47
2023-01-03T10:20:08.593Z,41.23
2023-01-03T10:21:11.080Z,40.49
2023-01-03T10:22:13.652Z,39.99
2023-01-03T10:23:16.249Z,41.65
2023-01-03T10:24:18.838Z,38.78
2023-01-03T10:25:21.402Z,41.49
2023-01-03T10:26:30.746Z,40.00
2023-01-03T10:27:29.153Z,27.54
2023-01-03T10:28:31.688Z,31.30
2023-01-03T10:29:34.371Z,37.81
2023-01-03T10:30:37.085Z,46.33
2023-01-03T10:31:39.636Z,42.52
2023-01-03T10:32:42.520Z,46.50
2023-01-03T10:33:45.037Z,44.79
2023-01-03T10:34:47.517Z,46.51
2023-01-03T10:35:50.096Z,49.05
2023-01-03T10:36:53.456Z,42.56
2023-01-03T10:37:56.027Z,45.29
2023-01-03T10:38:58.560Z,43.92
2023-01-03T10:40:01.161Z,36.22
2023-01-03T10:41:03.705Z,44.53
2023-01-03T10:42:06.237Z,52.02
2023-01-03T10:43:08.776Z,53.78
2023-01-03T10:44:11.307Z,50.82
2023-01-03T10:45:13.959Z,54.93
2023-01-03T10:46:18.077Z,48.09
2023-01-03T10:47:20.667Z,35.16
2023-01-03T10:48:23.205Z,38.98
2023-01-03T10:49:27.853Z,41.85
2023-01-03T10:50:30.942Z,43.31
2023-01-03T10:51:38.475Z,44.60
2023-01-03T10:52:37.855Z,47.61
2023-01-03T10:53:40.398Z,44.55
2023-01-03T10:54:42.980Z,51.31
2023-01-03T10:55:45.579Z,51.31
2023-01-03T10:56:48.557Z,44.77
2023-01-03T10:57:51.143Z,42.59
2023-01-03T10:58:53.717Z,40.08
2023-01-03T10:59:56.249Z,28.61
2023-01-03T11:00:59.231Z,45.41
2023-01-03T11:02:02.507Z,49.10
2023-01-03T11:03:05.498Z,50.63
2023-01-03T11:04:08.330Z,48.76
2023-01-03T11:05:10.861Z,49.52
2023-01-03T11:06:13.771Z,46.81
2023-01-03T11:07:16.335Z,47.50
2023-01-03T11:08:19.018Z,51.61
2023-01-03T11:09:21.530Z,39.24
2023-01-03T11:10:24.412Z,49.42
2023-01-03T11:11:26.997Z,35.77
2023-01-03T11:12:29.613Z,52.59
2023-01-03T11:13:32.115Z,54.72
2023-01-03T11:14:34.869Z,49.61
2023-01-03T11:15:39.026Z,41.85
2023-01-03T11:16:42.448Z,49.06
2023-01-03T11:17:45.142Z,60.49
2023-01-03T11:18:47.739Z,56.53
2023-01-03T11:19:50.254Z,93.15
2023-01-03T11:20:52.881Z,32.12
2023-01-03T11:21:55.463Z,64.27
2023-01-03T11:22:57.994Z,50.00
2023-01-03T11:24:00.573Z,50.51
2023-01-03T11:25:03.108Z,42.26
2023-01-03T11:26:05.944Z,46.50
2023-01-03T11:27:08.635Z,46.97
2023-01-03T11:28:15.943Z,63.97
2023-01-03T11:29:15.501Z,57.89
2023-01-03T11:30:18.762Z,56.99
2023-01-03T11:31:21.344Z,53.06
2023-01-03T11:32:24.119Z,52.90
2023-01-03T11:33:29.577Z,55.95
2023-01-03T11:34:54.974Z,50.84
2023-01-03T11:35:35.424Z,58.01
2023-01-03T11:36:38.214Z,62.14
2023-01-03T11:37:40.793Z,43.17
2023-01-03T11:38:43.341Z,42.77
2023-01-03T11:39:45.932Z,54.05
2023-01-03T11:40:48.779Z,48.80
2023-01-03T11:41:51.528Z,45.26
2023-01-03T11:42:54.130Z,54.39
2023-01-03T11:43:56.681Z,55.71
2023-01-03T11:44:59.198Z,53.69
2023-01-03T11:46:01.822Z,55.52
2023-01-03T11:47:04.612Z,57.58
2023-01-03T11:48:07.206Z,54.91
2023-01-03T11:49:09.764Z,45.98
2023-01-03T11:50:12.892Z,51.82
2023-01-03T11:51:15.430Z,58.60
2023-01-03T11:52:18.024Z,58.07
2023-01-03T11:53:20.639Z,81.68
2023-01-03T11:54:23.494Z,66.29
2023-01-03T11:55:26.053Z,90.35
2023-01-03T11:56:29.194Z,69.09
2023-01-03T11:57:31.733Z,64.09
2023-01-03T11:58:34.329Z,53.22
2023-01-03T11:59:37.068Z,56.63
2023-01-03T12:00:39.885Z,51.46
2023-01-03T12:01:43.183Z,60.66
2023-01-03T12:02:46.406Z,38.75
2023-01-03T12:03:49.595Z,54.08
2023-01-03T12:04:52.363Z,60.36
2023-01-03T12:05:54.906Z,43.63
2023-01-03T12:07:14.566Z,61.93
2023-01-03T12:08:02.048Z,55.42
2023-01-03T12:09:04.611Z,52.69
2023-01-03T12:10:07.557Z,47.29
2023-01-03T12:11:10.116Z,37.97
2023-01-03T12:12:12.719Z,50.43
2023-01-03T12:13:15.298Z,33.31
2023-01-03T12:14:17.849Z,32.10
2023-01-03T12:15:20.373Z,29.17
2023-01-03T12:16:23.663Z,48.94
2023-01-03T12:17:26.297Z,33.59
2023-01-03T12:18:28.840Z,48.74
2023-01-03T12:19:31.435Z,56.58
2023-01-03T12:20:34.288Z,58.17
2023-01-03T12:21:36.808Z,51.59
2023-01-03T12:22:39.389Z,49.41
2023-01-03T12:23:41.945Z,57.42
2023-01-03T12:24:44.539Z,56.03
2023-01-03T12:25:48.834Z,46.12
2023-01-03T12:26:51.759Z,50.88
2023-01-03T12:27:54.196Z,45.92
2023-01-03T12:28:56.773Z,51.93
2023-01-03T12:29:59.342Z,47.05
2023-01-03T12:31:02.325Z,53.53
2023-01-03T12:32:05.171Z,60.92
2023-01-03T12:33:07.714Z,53.67
2023-01-03T12:34:10.308Z,51.45
2023-01-03T12:35:12.905Z,56.74
2023-01-03T12:36:15.827Z,55.34
2023-01-03T12:37:18.365Z,53.67
2023-01-03T12:38:20.984Z,46.32
2023-01-03T12:39:29.191Z,55.06
2023-01-03T12:40:28.110Z,44.14
2023-01-03T12:41:30.654Z,53.17
2023-01-03T12:42:33.224Z,53.89
2023-01-03T12:43:35.715Z,54.05
2023-01-03T12:44:38.251Z,51.47
2023-01-03T12:45:40.841Z,49.48
2023-01-03T12:46:43.536Z,43.87
2023-01-03T12:47:46.117Z,57.05
2023-01-03T12:48:48.704Z,56.07
2023-01-03T12:49:51.275Z,43.49
2023-01-03T12:50:54.192Z,51.66
2023-01-03T12:51:56.776Z,52.38
2023-01-03T12:52:59.371Z,59.51
2023-01-03T12:54:01.911Z,48.61
2023-01-03T12:55:04.459Z,48.10
2023-01-03T12:56:07.781Z,52.36
2023-01-03T12:57:10.347Z,51.56
2023-01-03T12:58:12.922Z,48.33
2023-01-03T12:59:15.467Z,50.53
2023-01-03T13:00:19.742Z,47.93
2023-01-03T13:01:22.515Z,32.97
2023-01-03T13:02:25.415Z,48.05
2023-01-03T13:03:28.427Z,42.48
2023-01-03T13:04:31.309Z,45.03
2023-01-03T13:05:33.829Z,75.67
2023-01-03T13:06:36.636Z,93.22
2023-01-03T13:07:39.178Z,84.33
2023-01-03T13:08:41.717Z,116.70
2023-01-03T13:09:44.250Z,77.85
2023-01-03T13:10:46.984Z,43.59
2023-01-03T13:11:49.552Z,48.05
2023-01-03T13:12:52.103Z,73.79
2023-01-03T13:13:54.704Z,65.17
2023-01-03T13:14:57.233Z,41.21
2023-01-03T13:15:59.861Z,51.91
2023-01-03T13:17:02.696Z,95.59
2023-01-03T13:18:05.227Z,179.13
2023-01-03T13:19:07.759Z,63.89
2023-01-03T13:20:11.350Z,113.66
2023-01-03T13:21:13.850Z,110.75
2023-01-03T13:22:16.467Z,105.76
2023-01-03T13:23:19.009Z,61.55
2023-01-03T13:24:21.544Z,117.60